DAUO/ELU METAR and TAF weather

Enter ICAO airport designator
Station Type Date Time Source
DAUO METAR 2020/09/26 12:00 UTC NOAA

DAUO 261200Z 28006KT 6000 NSC 29/07 Q1012


Station Type Date Time Source
DAUO Decoded METAR 2020/09/26 12:00 UTC NOAA

El Oued, Algeria (DAUO) 33-30N 006-07E 63M
Sep 26, 2020 - 08:00 AM EDT / 2020.09.26 1200 UTC
Wind: from the W (280 degrees) at 7 MPH (6 KT):0
Visibility: 3 mile(s):0
Temperature: 84 F (29 C)
Dew Point: 44 F (7 C)
Relative Humidity: 24%
Pressure (altimeter): 29.88 in. Hg (1012 hPa)
ob: DAUO 261200Z 28006KT 6000 NSC 29/07 Q1012
cycle: 12

Station Type Date Time Source
DAUO TAF 2017/11/09 18:03 UTC NOAA

TAF DAUO 091700Z 0918/1009 28010KT 9999 SCT033 SCT100 PROB30
TEMPO 0918/0924 28015G25KT 5000 -TSRA FEW036CB

Example: see airport list